sensor_id;sensor_type;location;lat;lon;timestamp;P1;durP1;ratioP1;P2;durP2;ratioP2
57249;SDS011;43102;52.014;-0.680;2022-08-30T00:00:13;5.60;;;3.60;;
57249;SDS011;43102;52.014;-0.680;2022-08-30T00:01:01;5.60;;;3.60;;
57249;SDS011;43102;52.014;-0.680;2022-08-30T00:02:00;5.60;;;3.60;;
57249;SDS011;43102;52.014;-0.680;2022-08-30T00:03:01;5.60;;;3.60;;
57249;SDS011;43102;52.014;-0.680;2022-08-30T00:04:01;5.60;;;3.60;;
57249;SDS011;43102;52.014;-0.680;2022-08-30T00:05:01;5.60;;;3.60;;
57249;SDS011;43102;52.014;-0.680;2022-08-30T00:06:00;5.60;;;3.60;;
57249;SDS011;43102;52.014;-0.680;2022-08-30T00:07:02;5.60;;;3.60;;
57249;SDS011;43102;52.014;-0.680;2022-08-30T00:08:00;5.60;;;3.60;;
57249;SDS011;43102;52.014;-0.680;2022-08-30T00:09:01;5.60;;;3.60;;
57249;SDS011;43102;52.014;-0.680;2022-08-30T00:10:00;5.60;;;3.60;;
57249;SDS011;43102;52.014;-0.680;2022-08-30T00:11:02;5.60;;;3.60;;
57249;SDS011;43102;52.014;-0.680;2022-08-30T00:12:01;5.60;;;3.60;;
57249;SDS011;43102;52.014;-0.680;2022-08-30T00:13:01;6.70;;;4.00;;
57249;SDS011;43102;52.014;-0.680;2022-08-30T00:14:00;6.70;;;4.00;;
57249;SDS011;43102;52.014;-0.680;2022-08-30T00:15:00;6.70;;;4.00;;
57249;SDS011;43102;52.014;-0.680;2022-08-30T00:16:00;6.70;;;4.00;;
57249;SDS011;43102;52.014;-0.680;2022-08-30T00:17:00;6.70;;;4.00;;
57249;SDS011;43102;52.014;-0.680;2022-08-30T00:18:00;6.70;;;4.00;;
57249;SDS011;43102;52.014;-0.680;2022-08-30T00:19:01;6.70;;;4.00;;
57249;SDS011;43102;52.014;-0.680;2022-08-30T00:20:00;6.70;;;4.00;;
57249;SDS011;43102;52.014;-0.680;2022-08-30T00:21:00;6.70;;;4.00;;
57249;SDS011;43102;52.014;-0.680;2022-08-30T00:22:00;6.70;;;4.00;;
57249;SDS011;43102;52.014;-0.680;2022-08-30T00:23:00;6.70;;;4.00;;
57249;SDS011;43102;52.014;-0.680;2022-08-30T00:24:00;6.70;;;4.00;;
57249;SDS011;43102;52.014;-0.680;2022-08-30T00:25:00;6.70;;;4.00;;
57249;SDS011;43102;52.014;-0.680;2022-08-30T00:26:01;6.70;;;4.00;;
57249;SDS011;43102;52.014;-0.680;2022-08-30T00:27:00;6.70;;;4.00;;
57249;SDS011;43102;52.014;-0.680;2022-08-30T00:28:01;6.70;;;4.00;;
57249;SDS011;43102;52.014;-0.680;2022-08-30T00:29:00;6.70;;;4.00;;
57249;SDS011;43102;52.014;-0.680;2022-08-30T00:30:00;6.70;;;4.00;;
57249;SDS011;43102;52.014;-0.680;2022-08-30T00:31:00;6.70;;;4.00;;
57249;SDS011;43102;52.014;-0.680;2022-08-30T00:32:01;6.70;;;4.00;;
57249;SDS011;43102;52.014;-0.680;2022-08-30T00:33:00;6.70;;;4.00;;
57249;SDS011;43102;52.014;-0.680;2022-08-30T00:34:00;6.70;;;4.00;;
57249;SDS011;43102;52.014;-0.680;2022-08-30T00:35:00;6.70;;;4.00;;
57249;SDS011;43102;52.014;-0.680;2022-08-30T00:36:00;6.70;;;4.00;;
57249;SDS011;43102;52.014;-0.680;2022-08-30T00:37:01;6.70;;;4.00;;
57249;SDS011;43102;52.014;-0.680;2022-08-30T00:38:00;6.70;;;4.00;;
57249;SDS011;43102;52.014;-0.680;2022-08-30T00:39:00;6.70;;;4.00;;
57249;SDS011;43102;52.014;-0.680;2022-08-30T00:40:00;6.70;;;4.00;;
57249;SDS011;43102;52.014;-0.680;2022-08-30T00:41:00;6.70;;;4.00;;
57249;SDS011;43102;52.014;-0.680;2022-08-30T00:42:00;6.70;;;4.00;;
57249;SDS011;43102;52.014;-0.680;2022-08-30T00:43:07;6.60;;;4.00;;
57249;SDS011;43102;52.014;-0.680;2022-08-30T00:44:01;6.60;;;4.00;;
57249;SDS011;43102;52.014;-0.680;2022-08-30T00:45:00;6.60;;;4.00;;
57249;SDS011;43102;52.014;-0.680;2022-08-30T00:46:03;6.60;;;4.00;;
57249;SDS011;43102;52.014;-0.680;2022-08-30T00:47:00;6.60;;;4.00;;
57249;SDS011;43102;52.014;-0.680;2022-08-30T00:48:01;6.60;;;4.00;;
57249;SDS011;43102;52.014;-0.680;2022-08-30T00:49:04;6.60;;;4.00;;
57249;SDS011;43102;52.014;-0.680;2022-08-30T00:50:00;6.60;;;4.00;;
57249;SDS011;43102;52.014;-0.680;2022-08-30T00:51:03;6.60;;;4.00;;
57249;SDS011;43102;52.014;-0.680;2022-08-30T00:52:01;6.60;;;4.00;;
57249;SDS011;43102;52.014;-0.680;2022-08-30T00:53:03;6.60;;;4.00;;
57249;SDS011;43102;52.014;-0.680;2022-08-30T00:54:00;6.60;;;4.00;;
57249;SDS011;43102;52.014;-0.680;2022-08-30T00:55:01;6.60;;;4.00;;
57249;SDS011;43102;52.014;-0.680;2022-08-30T00:56:00;6.60;;;4.00;;
57249;SDS011;43102;52.014;-0.680;2022-08-30T00:57:01;6.60;;;4.00;;
57249;SDS011;43102;52.014;-0.680;2022-08-30T00:58:05;6.60;;;4.00;;
57249;SDS011;43102;52.014;-0.680;2022-08-30T00:59:02;6.60;;;4.00;;
57249;SDS011;43102;52.014;-0.680;2022-08-30T01:00:02;6.60;;;4.00;;
57249;SDS011;43102;52.014;-0.680;2022-08-30T01:01:01;6.60;;;4.00;;
57249;SDS011;43102;52.014;-0.680;2022-08-30T01:02:02;6.60;;;4.00;;
57249;SDS011;43102;52.014;-0.680;2022-08-30T01:03:00;6.60;;;4.00;;
57249;SDS011;43102;52.014;-0.680;2022-08-30T01:04:02;6.60;;;4.00;;
57249;SDS011;43102;52.014;-0.680;2022-08-30T01:05:02;6.60;;;4.00;;
57249;SDS011;43102;52.014;-0.680;2022-08-30T01:06:00;6.60;;;4.00;;
57249;SDS011;43102;52.014;-0.680;2022-08-30T01:07:00;6.60;;;4.00;;
57249;SDS011;43102;52.014;-0.680;2022-08-30T01:08:00;6.60;;;4.00;;
57249;SDS011;43102;52.014;-0.680;2022-08-30T01:09:02;6.60;;;4.00;;
57249;SDS011;43102;52.014;-0.680;2022-08-30T01:10:01;6.60;;;4.00;;
57249;SDS011;43102;52.014;-0.680;2022-08-30T01:11:00;6.60;;;4.00;;
57249;SDS011;43102;52.014;-0.680;2022-08-30T01:12:00;6.60;;;4.00;;
57249;SDS011;43102;52.014;-0.680;2022-08-30T01:13:00;5.90;;;3.70;;
57249;SDS011;43102;52.014;-0.680;2022-08-30T01:14:02;5.90;;;3.70;;
57249;SDS011;43102;52.014;-0.680;2022-08-30T01:15:00;5.90;;;3.70;;
57249;SDS011;43102;52.014;-0.680;2022-08-30T01:16:02;5.90;;;3.70;;
57249;SDS011;43102;52.014;-0.680;2022-08-30T01:17:01;5.90;;;3.70;;
57249;SDS011;43102;52.014;-0.680;2022-08-30T01:18:01;5.90;;;3.70;;
57249;SDS011;43102;52.014;-0.680;2022-08-30T01:19:00;5.90;;;3.70;;
57249;SDS011;43102;52.014;-0.680;2022-08-30T01:20:06;5.90;;;3.70;;
57249;SDS011;43102;52.014;-0.680;2022-08-30T01:21:10;5.90;;;3.70;;
57249;SDS011;43102;52.014;-0.680;2022-08-30T01:22:17;5.90;;;3.70;;
57249;SDS011;43102;52.014;-0.680;2022-08-30T01:23:07;5.90;;;3.70;;
57249;SDS011;43102;52.014;-0.680;2022-08-30T01:24:02;5.90;;;3.70;;
57249;SDS011;43102;52.014;-0.680;2022-08-30T01:25:02;5.90;;;3.70;;
57249;SDS011;43102;52.014;-0.680;2022-08-30T01:26:01;5.90;;;3.70;;
57249;SDS011;43102;52.014;-0.680;2022-08-30T01:27:00;5.90;;;3.70;;
57249;SDS011;43102;52.014;-0.680;2022-08-30T01:28:04;5.90;;;3.70;;
57249;SDS011;43102;52.014;-0.680;2022-08-30T01:29:04;5.90;;;3.70;;
57249;SDS011;43102;52.014;-0.680;2022-08-30T01:30:00;5.90;;;3.70;;
57249;SDS011;43102;52.014;-0.680;2022-08-30T01:31:00;5.90;;;3.70;;
57249;SDS011;43102;52.014;-0.680;2022-08-30T01:32:00;5.90;;;3.70;;
57249;SDS011;43102;52.014;-0.680;2022-08-30T01:33:03;5.90;;;3.70;;
57249;SDS011;43102;52.014;-0.680;2022-08-30T01:34:00;5.90;;;3.70;;
57249;SDS011;43102;52.014;-0.680;2022-08-30T01:35:00;5.90;;;3.70;;
57249;SDS011;43102;52.014;-0.680;2022-08-30T01:36:05;5.90;;;3.70;;
57249;SDS011;43102;52.014;-0.680;2022-08-30T01:37:01;5.90;;;3.70;;
57249;SDS011;43102;52.014;-0.680;2022-08-30T01:38:00;5.90;;;3.70;;
57249;SDS011;43102;52.014;-0.680;2022-08-30T01:39:02;5.90;;;3.70;;
57249;SDS011;43102;52.014;-0.680;2022-08-30T01:40:00;5.90;;;3.70;;
57249;SDS011;43102;52.014;-0.680;2022-08-30T01:41:09;5.90;;;3.70;;
57249;SDS011;43102;52.014;-0.680;2022-08-30T01:42:01;5.90;;;3.70;;
57249;SDS011;43102;52.014;-0.680;2022-08-30T01:43:00;6.40;;;3.40;;
57249;SDS011;43102;52.014;-0.680;2022-08-30T01:44:03;6.40;;;3.40;;
57249;SDS011;43102;52.014;-0.680;2022-08-30T01:45:00;6.40;;;3.40;;
57249;SDS011;43102;52.014;-0.680;2022-08-30T01:46:01;6.40;;;3.40;;
57249;SDS011;43102;52.014;-0.680;2022-08-30T01:47:00;6.40;;;3.40;;
57249;SDS011;43102;52.014;-0.680;2022-08-30T01:48:07;6.40;;;3.40;;
57249;SDS011;43102;52.014;-0.680;2022-08-30T01:49:04;6.40;;;3.40;;
57249;SDS011;43102;52.014;-0.680;2022-08-30T01:50:00;6.40;;;3.40;;
57249;SDS011;43102;52.014;-0.680;2022-08-30T01:51:01;6.40;;;3.40;;
57249;SDS011;43102;52.014;-0.680;2022-08-30T01:52:01;6.40;;;3.40;;
57249;SDS011;43102;52.014;-0.680;2022-08-30T01:53:00;6.40;;;3.40;;
57249;SDS011;43102;52.014;-0.680;2022-08-30T01:54:00;6.40;;;3.40;;
57249;SDS011;43102;52.014;-0.680;2022-08-30T01:55:01;6.40;;;3.40;;
57249;SDS011;43102;52.014;-0.680;2022-08-30T01:56:00;6.40;;;3.40;;
57249;SDS011;43102;52.014;-0.680;2022-08-30T01:57:00;6.40;;;3.40;;
57249;SDS011;43102;52.014;-0.680;2022-08-30T01:58:00;6.40;;;3.40;;
57249;SDS011;43102;52.014;-0.680;2022-08-30T01:59:03;6.40;;;3.40;;
57249;SDS011;43102;52.014;-0.680;2022-08-30T02:00:00;6.40;;;3.40;;
57249;SDS011;43102;52.014;-0.680;2022-08-30T02:01:00;6.40;;;3.40;;
57249;SDS011;43102;52.014;-0.680;2022-08-30T02:02:00;6.40;;;3.40;;
57249;SDS011;43102;52.014;-0.680;2022-08-30T02:03:00;6.40;;;3.40;;
57249;SDS011;43102;52.014;-0.680;2022-08-30T02:04:01;6.40;;;3.40;;
57249;SDS011;43102;52.014;-0.680;2022-08-30T02:05:00;6.40;;;3.40;;
57249;SDS011;43102;52.014;-0.680;2022-08-30T02:06:03;6.40;;;3.40;;
57249;SDS011;43102;52.014;-0.680;2022-08-30T02:07:00;6.40;;;3.40;;
57249;SDS011;43102;52.014;-0.680;2022-08-30T02:08:00;6.40;;;3.40;;
57249;SDS011;43102;52.014;-0.680;2022-08-30T02:09:01;6.40;;;3.40;;
57249;SDS011;43102;52.014;-0.680;2022-08-30T02:10:00;6.40;;;3.40;;
57249;SDS011;43102;52.014;-0.680;2022-08-30T02:11:01;6.40;;;3.40;;
57249;SDS011;43102;52.014;-0.680;2022-08-30T02:12:00;6.40;;;3.40;;
57249;SDS011;43102;52.014;-0.680;2022-08-30T02:13:02;6.00;;;3.00;;
57249;SDS011;43102;52.014;-0.680;2022-08-30T02:14:00;6.00;;;3.00;;
57249;SDS011;43102;52.014;-0.680;2022-08-30T02:15:00;6.00;;;3.00;;
57249;SDS011;43102;52.014;-0.680;2022-08-30T02:16:00;6.00;;;3.00;;
57249;SDS011;43102;52.014;-0.680;2022-08-30T02:17:01;6.00;;;3.00;;
57249;SDS011;43102;52.014;-0.680;2022-08-30T02:18:01;6.00;;;3.00;;
57249;SDS011;43102;52.014;-0.680;2022-08-30T02:19:00;6.00;;;3.00;;
57249;SDS011;43102;52.014;-0.680;2022-08-30T02:20:00;6.00;;;3.00;;
57249;SDS011;43102;52.014;-0.680;2022-08-30T02:21:00;6.00;;;3.00;;
57249;SDS011;43102;52.014;-0.680;2022-08-30T02:22:00;6.00;;;3.00;;
57249;SDS011;43102;52.014;-0.680;2022-08-30T02:23:01;6.00;;;3.00;;
57249;SDS011;43102;52.014;-0.680;2022-08-30T02:24:00;6.00;;;3.00;;
57249;SDS011;43102;52.014;-0.680;2022-08-30T02:25:00;6.00;;;3.00;;
57249;SDS011;43102;52.014;-0.680;2022-08-30T02:26:00;6.00;;;3.00;;
57249;SDS011;43102;52.014;-0.680;2022-08-30T02:27:00;6.00;;;3.00;;
57249;SDS011;43102;52.014;-0.680;2022-08-30T02:28:01;6.00;;;3.00;;
57249;SDS011;43102;52.014;-0.680;2022-08-30T02:29:00;6.00;;;3.00;;
57249;SDS011;43102;52.014;-0.680;2022-08-30T02:30:01;6.00;;;3.00;;
57249;SDS011;43102;52.014;-0.680;2022-08-30T02:31:00;6.00;;;3.00;;
57249;SDS011;43102;52.014;-0.680;2022-08-30T02:32:00;6.00;;;3.00;;
57249;SDS011;43102;52.014;-0.680;2022-08-30T02:33:00;6.00;;;3.00;;
57249;SDS011;43102;52.014;-0.680;2022-08-30T02:34:00;6.00;;;3.00;;
57249;SDS011;43102;52.014;-0.680;2022-08-30T02:35:00;6.00;;;3.00;;
57249;SDS011;43102;52.014;-0.680;2022-08-30T02:36:00;6.00;;;3.00;;
57249;SDS011;43102;52.014;-0.680;2022-08-30T02:37:00;6.00;;;3.00;;
57249;SDS011;43102;52.014;-0.680;2022-08-30T02:38:00;6.00;;;3.00;;
57249;SDS011;43102;52.014;-0.680;2022-08-30T02:39:00;6.00;;;3.00;;
57249;SDS011;43102;52.014;-0.680;2022-08-30T02:40:00;6.00;;;3.00;;
57249;SDS011;43102;52.014;-0.680;2022-08-30T02:41:00;6.00;;;3.00;;
57249;SDS011;43102;52.014;-0.680;2022-08-30T02:42:00;6.00;;;3.00;;
57249;SDS011;43102;52.014;-0.680;2022-08-30T02:43:00;5.80;;;3.30;;
57249;SDS011;43102;52.014;-0.680;2022-08-30T02:44:00;5.80;;;3.30;;
57249;SDS011;43102;52.014;-0.680;2022-08-30T02:45:00;5.80;;;3.30;;
57249;SDS011;43102;52.014;-0.680;2022-08-30T02:46:00;5.80;;;3.30;;
57249;SDS011;43102;52.014;-0.680;2022-08-30T02:47:00;5.80;;;3.30;;
57249;SDS011;43102;52.014;-0.680;2022-08-30T02:48:00;5.80;;;3.30;;
57249;SDS011;43102;52.014;-0.680;2022-08-30T02:49:10;5.80;;;3.30;;
57249;SDS011;43102;52.014;-0.680;2022-08-30T02:50:02;5.80;;;3.30;;
57249;SDS011;43102;52.014;-0.680;2022-08-30T02:51:12;5.80;;;3.30;;
57249;SDS011;43102;52.014;-0.680;2022-08-30T02:52:01;5.80;;;3.30;;
57249;SDS011;43102;52.014;-0.680;2022-08-30T02:53:00;5.80;;;3.30;;
57249;SDS011;43102;52.014;-0.680;2022-08-30T02:54:00;5.80;;;3.30;;
57249;SDS011;43102;52.014;-0.680;2022-08-30T02:55:00;5.80;;;3.30;;
57249;SDS011;43102;52.014;-0.680;2022-08-30T02:56:00;5.80;;;3.30;;
57249;SDS011;43102;52.014;-0.680;2022-08-30T02:57:03;5.80;;;3.30;;
57249;SDS011;43102;52.014;-0.680;2022-08-30T02:58:00;5.80;;;3.30;;
57249;SDS011;43102;52.014;-0.680;2022-08-30T02:59:00;5.80;;;3.30;;
57249;SDS011;43102;52.014;-0.680;2022-08-30T03:00:01;5.80;;;3.30;;
57249;SDS011;43102;52.014;-0.680;2022-08-30T03:01:00;5.80;;;3.30;;
57249;SDS011;43102;52.014;-0.680;2022-08-30T03:02:00;5.80;;;3.30;;
57249;SDS011;43102;52.014;-0.680;2022-08-30T03:03:03;5.80;;;3.30;;
57249;SDS011;43102;52.014;-0.680;2022-08-30T03:04:00;5.80;;;3.30;;
57249;SDS011;43102;52.014;-0.680;2022-08-30T03:05:00;5.80;;;3.30;;
57249;SDS011;43102;52.014;-0.680;2022-08-30T03:06:02;5.80;;;3.30;;
57249;SDS011;43102;52.014;-0.680;2022-08-30T03:07:00;5.80;;;3.30;;
57249;SDS011;43102;52.014;-0.680;2022-08-30T03:08:00;5.80;;;3.30;;
57249;SDS011;43102;52.014;-0.680;2022-08-30T03:09:01;5.80;;;3.30;;
57249;SDS011;43102;52.014;-0.680;2022-08-30T03:10:00;5.80;;;3.30;;
57249;SDS011;43102;52.014;-0.680;2022-08-30T03:11:02;5.80;;;3.30;;
57249;SDS011;43102;52.014;-0.680;2022-08-30T03:12:00;5.80;;;3.30;;
57249;SDS011;43102;52.014;-0.680;2022-08-30T03:13:00;5.30;;;3.00;;
57249;SDS011;43102;52.014;-0.680;2022-08-30T03:14:00;5.30;;;3.00;;
57249;SDS011;43102;52.014;-0.680;2022-08-30T03:15:00;5.30;;;3.00;;
57249;SDS011;43102;52.014;-0.680;2022-08-30T03:16:00;5.30;;;3.00;;
57249;SDS011;43102;52.014;-0.680;2022-08-30T03:17:01;5.30;;;3.00;;
57249;SDS011;43102;52.014;-0.680;2022-08-30T03:18:00;5.30;;;3.00;;
57249;SDS011;43102;52.014;-0.680;2022-08-30T03:19:00;5.30;;;3.00;;
57249;SDS011;43102;52.014;-0.680;2022-08-30T03:20:01;5.30;;;3.00;;
57249;SDS011;43102;52.014;-0.680;2022-08-30T03:21:00;5.30;;;3.00;;
57249;SDS011;43102;52.014;-0.680;2022-08-30T03:22:00;5.30;;;3.00;;
57249;SDS011;43102;52.014;-0.680;2022-08-30T03:23:01;5.30;;;3.00;;
57249;SDS011;43102;52.014;-0.680;2022-08-30T03:24:00;5.30;;;3.00;;
57249;SDS011;43102;52.014;-0.680;2022-08-30T03:25:01;5.30;;;3.00;;
57249;SDS011;43102;52.014;-0.680;2022-08-30T03:26:00;5.30;;;3.00;;
57249;SDS011;43102;52.014;-0.680;2022-08-30T03:27:00;5.30;;;3.00;;
57249;SDS011;43102;52.014;-0.680;2022-08-30T03:28:00;5.30;;;3.00;;
57249;SDS011;43102;52.014;-0.680;2022-08-30T03:29:01;5.30;;;3.00;;
57249;SDS011;43102;52.014;-0.680;2022-08-30T03:30:00;5.30;;;3.00;;
57249;SDS011;43102;52.014;-0.680;2022-08-30T03:31:00;5.30;;;3.00;;
57249;SDS011;43102;52.014;-0.680;2022-08-30T03:32:00;5.30;;;3.00;;
57249;SDS011;43102;52.014;-0.680;2022-08-30T03:33:02;5.30;;;3.00;;
57249;SDS011;43102;52.014;-0.680;2022-08-30T03:34:00;5.30;;;3.00;;
57249;SDS011;43102;52.014;-0.680;2022-08-30T03:35:00;5.30;;;3.00;;
57249;SDS011;43102;52.014;-0.680;2022-08-30T03:36:00;5.30;;;3.00;;
57249;SDS011;43102;52.014;-0.680;2022-08-30T03:37:00;5.30;;;3.00;;
57249;SDS011;43102;52.014;-0.680;2022-08-30T03:38:00;5.30;;;3.00;;
57249;SDS011;43102;52.014;-0.680;2022-08-30T03:39:00;5.30;;;3.00;;
57249;SDS011;43102;52.014;-0.680;2022-08-30T03:40:02;5.30;;;3.00;;
57249;SDS011;43102;52.014;-0.680;2022-08-30T03:41:00;5.30;;;3.00;;
57249;SDS011;43102;52.014;-0.680;2022-08-30T03:42:00;5.30;;;3.00;;
57249;SDS011;43102;52.014;-0.680;2022-08-30T03:43:00;7.10;;;3.30;;
57249;SDS011;43102;52.014;-0.680;2022-08-30T03:44:01;7.10;;;3.30;;
57249;SDS011;43102;52.014;-0.680;2022-08-30T03:45:02;7.10;;;3.30;;
57249;SDS011;43102;52.014;-0.680;2022-08-30T03:46:00;7.10;;;3.30;;
57249;SDS011;43102;52.014;-0.680;2022-08-30T03:47:00;7.10;;;3.30;;
57249;SDS011;43102;52.014;-0.680;2022-08-30T03:48:02;7.10;;;3.30;;
57249;SDS011;43102;52.014;-0.680;2022-08-30T03:49:00;7.10;;;3.30;;
57249;SDS011;43102;52.014;-0.680;2022-08-30T03:50:00;7.10;;;3.30;;
57249;SDS011;43102;52.014;-0.680;2022-08-30T03:51:00;7.10;;;3.30;;
57249;SDS011;43102;52.014;-0.680;2022-08-30T03:52:00;7.10;;;3.30;;
57249;SDS011;43102;52.014;-0.680;2022-08-30T03:53:00;7.10;;;3.30;;
57249;SDS011;43102;52.014;-0.680;2022-08-30T03:54:00;7.10;;;3.30;;
57249;SDS011;43102;52.014;-0.680;2022-08-30T03:55:00;7.10;;;3.30;;
57249;SDS011;43102;52.014;-0.680;2022-08-30T03:56:01;7.10;;;3.30;;
57249;SDS011;43102;52.014;-0.680;2022-08-30T03:57:00;7.10;;;3.30;;
57249;SDS011;43102;52.014;-0.680;2022-08-30T03:58:00;7.10;;;3.30;;
57249;SDS011;43102;52.014;-0.680;2022-08-30T03:59:00;7.10;;;3.30;;
57249;SDS011;43102;52.014;-0.680;2022-08-30T04:00:00;7.10;;;3.30;;
57249;SDS011;43102;52.014;-0.680;2022-08-30T04:01:00;7.10;;;3.30;;
57249;SDS011;43102;52.014;-0.680;2022-08-30T04:02:00;7.10;;;3.30;;
57249;SDS011;43102;52.014;-0.680;2022-08-30T04:03:00;7.10;;;3.30;;
57249;SDS011;43102;52.014;-0.680;2022-08-30T04:04:00;7.10;;;3.30;;
57249;SDS011;43102;52.014;-0.680;2022-08-30T04:05:00;7.10;;;3.30;;
57249;SDS011;43102;52.014;-0.680;2022-08-30T04:06:00;7.10;;;3.30;;
57249;SDS011;43102;52.014;-0.680;2022-08-30T04:07:00;7.10;;;3.30;;
57249;SDS011;43102;52.014;-0.680;2022-08-30T04:08:00;7.10;;;3.30;;
57249;SDS011;43102;52.014;-0.680;2022-08-30T04:09:00;7.10;;;3.30;;
57249;SDS011;43102;52.014;-0.680;2022-08-30T04:10:00;7.10;;;3.30;;
57249;SDS011;43102;52.014;-0.680;2022-08-30T04:11:01;7.10;;;3.30;;
57249;SDS011;43102;52.014;-0.680;2022-08-30T04:12:00;7.10;;;3.30;;
57249;SDS011;43102;52.014;-0.680;2022-08-30T04:13:00;6.00;;;3.40;;
57249;SDS011;43102;52.014;-0.680;2022-08-30T04:14:00;6.00;;;3.40;;
57249;SDS011;43102;52.014;-0.680;2022-08-30T04:15:00;6.00;;;3.40;;
57249;SDS011;43102;52.014;-0.680;2022-08-30T04:16:00;6.00;;;3.40;;
57249;SDS011;43102;52.014;-0.680;2022-08-30T04:17:00;6.00;;;3.40;;
57249;SDS011;43102;52.014;-0.680;2022-08-30T04:18:00;6.00;;;3.40;;
57249;SDS011;43102;52.014;-0.680;2022-08-30T04:19:00;6.00;;;3.40;;
57249;SDS011;43102;52.014;-0.680;2022-08-30T04:20:00;6.00;;;3.40;;
57249;SDS011;43102;52.014;-0.680;2022-08-30T04:21:01;6.00;;;3.40;;
57249;SDS011;43102;52.014;-0.680;2022-08-30T04:22:00;6.00;;;3.40;;
57249;SDS011;43102;52.014;-0.680;2022-08-30T04:23:01;6.00;;;3.40;;
57249;SDS011;43102;52.014;-0.680;2022-08-30T04:24:00;6.00;;;3.40;;
57249;SDS011;43102;52.014;-0.680;2022-08-30T04:25:00;6.00;;;3.40;;
57249;SDS011;43102;52.014;-0.680;2022-08-30T04:26:00;6.00;;;3.40;;
57249;SDS011;43102;52.014;-0.680;2022-08-30T04:27:00;6.00;;;3.40;;
57249;SDS011;43102;52.014;-0.680;2022-08-30T04:28:01;6.00;;;3.40;;
57249;SDS011;43102;52.014;-0.680;2022-08-30T04:29:00;6.00;;;3.40;;
57249;SDS011;43102;52.014;-0.680;2022-08-30T04:30:00;6.00;;;3.40;;
57249;SDS011;43102;52.014;-0.680;2022-08-30T04:31:13;6.00;;;3.40;;
57249;SDS011;43102;52.014;-0.680;2022-08-30T04:32:00;6.00;;;3.40;;
57249;SDS011;43102;52.014;-0.680;2022-08-30T04:33:00;6.00;;;3.40;;
57249;SDS011;43102;52.014;-0.680;2022-08-30T04:34:00;6.00;;;3.40;;
57249;SDS011;43102;52.014;-0.680;2022-08-30T04:35:00;6.00;;;3.40;;
57249;SDS011;43102;52.014;-0.680;2022-08-30T04:36:04;6.00;;;3.40;;
57249;SDS011;43102;52.014;-0.680;2022-08-30T04:37:00;6.00;;;3.40;;
57249;SDS011;43102;52.014;-0.680;2022-08-30T04:38:01;6.00;;;3.40;;
57249;SDS011;43102;52.014;-0.680;2022-08-30T04:39:00;6.00;;;3.40;;
57249;SDS011;43102;52.014;-0.680;2022-08-30T04:40:00;6.00;;;3.40;;
57249;SDS011;43102;52.014;-0.680;2022-08-30T04:41:00;6.00;;;3.40;;
57249;SDS011;43102;52.014;-0.680;2022-08-30T04:42:02;6.00;;;3.40;;
57249;SDS011;43102;52.014;-0.680;2022-08-30T04:43:00;7.90;;;3.70;;
57249;SDS011;43102;52.014;-0.680;2022-08-30T04:44:02;7.90;;;3.70;;
57249;SDS011;43102;52.014;-0.680;2022-08-30T04:45:02;7.90;;;3.70;;
57249;SDS011;43102;52.014;-0.680;2022-08-30T04:46:05;7.90;;;3.70;;
57249;SDS011;43102;52.014;-0.680;2022-08-30T04:47:01;7.90;;;3.70;;
57249;SDS011;43102;52.014;-0.680;2022-08-30T04:48:00;7.90;;;3.70;;
57249;SDS011;43102;52.014;-0.680;2022-08-30T04:49:01;7.90;;;3.70;;
57249;SDS011;43102;52.014;-0.680;2022-08-30T04:50:00;7.90;;;3.70;;
57249;SDS011;43102;52.014;-0.680;2022-08-30T04:51:04;7.90;;;3.70;;
57249;SDS011;43102;52.014;-0.680;2022-08-30T04:52:00;7.90;;;3.70;;
57249;SDS011;43102;52.014;-0.680;2022-08-30T04:53:00;7.90;;;3.70;;
57249;SDS011;43102;52.014;-0.680;2022-08-30T04:54:00;7.90;;;3.70;;
57249;SDS011;43102;52.014;-0.680;2022-08-30T04:55:00;7.90;;;3.70;;
57249;SDS011;43102;52.014;-0.680;2022-08-30T04:56:00;7.90;;;3.70;;
57249;SDS011;43102;52.014;-0.680;2022-08-30T04:57:00;7.90;;;3.70;;
57249;SDS011;43102;52.014;-0.680;2022-08-30T04:58:00;7.90;;;3.70;;
57249;SDS011;43102;52.014;-0.680;2022-08-30T04:59:00;7.90;;;3.70;;
57249;SDS011;43102;52.014;-0.680;2022-08-30T05:00:00;7.90;;;3.70;;
57249;SDS011;43102;52.014;-0.680;2022-08-30T05:01:00;7.90;;;3.70;;
57249;SDS011;43102;52.014;-0.680;2022-08-30T05:02:00;7.90;;;3.70;;
57249;SDS011;43102;52.014;-0.680;2022-08-30T05:03:00;7.90;;;3.70;;
57249;SDS011;43102;52.014;-0.680;2022-08-30T05:04:01;7.90;;;3.70;;
57249;SDS011;43102;52.014;-0.680;2022-08-30T05:05:11;7.90;;;3.70;;
57249;SDS011;43102;52.014;-0.680;2022-08-30T05:06:00;7.90;;;3.70;;
57249;SDS011;43102;52.014;-0.680;2022-08-30T05:07:00;7.90;;;3.70;;
57249;SDS011;43102;52.014;-0.680;2022-08-30T05:08:00;7.90;;;3.70;;
57249;SDS011;43102;52.014;-0.680;2022-08-30T05:09:00;7.90;;;3.70;;
57249;SDS011;43102;52.014;-0.680;2022-08-30T05:10:00;7.90;;;3.70;;
57249;SDS011;43102;52.014;-0.680;2022-08-30T05:11:04;7.90;;;3.70;;
57249;SDS011;43102;52.014;-0.680;2022-08-30T05:12:00;7.90;;;3.70;;
57249;SDS011;43102;52.014;-0.680;2022-08-30T05:13:00;4.50;;;2.90;;
57249;SDS011;43102;52.014;-0.680;2022-08-30T05:14:00;4.50;;;2.90;;
57249;SDS011;43102;52.014;-0.680;2022-08-30T05:15:00;4.50;;;2.90;;
57249;SDS011;43102;52.014;-0.680;2022-08-30T05:16:01;4.50;;;2.90;;
57249;SDS011;43102;52.014;-0.680;2022-08-30T05:17:00;4.50;;;2.90;;
57249;SDS011;43102;52.014;-0.680;2022-08-30T05:18:01;4.50;;;2.90;;
57249;SDS011;43102;52.014;-0.680;2022-08-30T05:19:00;4.50;;;2.90;;
57249;SDS011;43102;52.014;-0.680;2022-08-30T05:20:01;4.50;;;2.90;;
57249;SDS011;43102;52.014;-0.680;2022-08-30T05:21:03;4.50;;;2.90;;
57249;SDS011;43102;52.014;-0.680;2022-08-30T05:22:00;4.50;;;2.90;;
57249;SDS011;43102;52.014;-0.680;2022-08-30T05:23:01;4.50;;;2.90;;
57249;SDS011;43102;52.014;-0.680;2022-08-30T05:24:00;4.50;;;2.90;;
57249;SDS011;43102;52.014;-0.680;2022-08-30T05:25:00;4.50;;;2.90;;
57249;SDS011;43102;52.014;-0.680;2022-08-30T05:26:04;4.50;;;2.90;;
57249;SDS011;43102;52.014;-0.680;2022-08-30T05:27:00;4.50;;;2.90;;
57249;SDS011;43102;52.014;-0.680;2022-08-30T05:28:00;4.50;;;2.90;;
57249;SDS011;43102;52.014;-0.680;2022-08-30T05:29:00;4.50;;;2.90;;
57249;SDS011;43102;52.014;-0.680;2022-08-30T05:30:00;4.50;;;2.90;;
57249;SDS011;43102;52.014;-0.680;2022-08-30T05:31:00;4.50;;;2.90;;
57249;SDS011;43102;52.014;-0.680;2022-08-30T05:32:00;4.50;;;2.90;;
57249;SDS011;43102;52.014;-0.680;2022-08-30T05:33:00;4.50;;;2.90;;
57249;SDS011;43102;52.014;-0.680;2022-08-30T05:34:00;4.50;;;2.90;;
57249;SDS011;43102;52.014;-0.680;2022-08-30T05:35:00;4.50;;;2.90;;
57249;SDS011;43102;52.014;-0.680;2022-08-30T05:36:00;4.50;;;2.90;;
57249;SDS011;43102;52.014;-0.680;2022-08-30T05:37:02;4.50;;;2.90;;
57249;SDS011;43102;52.014;-0.680;2022-08-30T05:38:00;4.50;;;2.90;;
57249;SDS011;43102;52.014;-0.680;2022-08-30T05:39:00;4.50;;;2.90;;
57249;SDS011;43102;52.014;-0.680;2022-08-30T05:40:00;4.50;;;2.90;;
57249;SDS011;43102;52.014;-0.680;2022-08-30T05:41:05;4.50;;;2.90;;
57249;SDS011;43102;52.014;-0.680;2022-08-30T05:42:00;4.50;;;2.90;;
57249;SDS011;43102;52.014;-0.680;2022-08-30T05:43:00;3.90;;;3.10;;
57249;SDS011;43102;52.014;-0.680;2022-08-30T05:44:02;3.90;;;3.10;;
57249;SDS011;43102;52.014;-0.680;2022-08-30T05:45:01;3.90;;;3.10;;
57249;SDS011;43102;52.014;-0.680;2022-08-30T05:46:04;3.90;;;3.10;;
57249;SDS011;43102;52.014;-0.680;2022-08-30T05:47:00;3.90;;;3.10;;
57249;SDS011;43102;52.014;-0.680;2022-08-30T05:48:00;3.90;;;3.10;;
57249;SDS011;43102;52.014;-0.680;2022-08-30T05:49:01;3.90;;;3.10;;
57249;SDS011;43102;52.014;-0.680;2022-08-30T05:50:00;3.90;;;3.10;;
57249;SDS011;43102;52.014;-0.680;2022-08-30T05:52:00;3.90;;;3.10;;
57249;SDS011;43102;52.014;-0.680;2022-08-30T05:53:00;3.90;;;3.10;;
57249;SDS011;43102;52.014;-0.680;2022-08-30T05:54:00;3.90;;;3.10;;
57249;SDS011;43102;52.014;-0.680;2022-08-30T05:55:03;3.90;;;3.10;;
57249;SDS011;43102;52.014;-0.680;2022-08-30T05:56:05;3.90;;;3.10;;